Main page
METAR-TAF:

METAR-TAF

Airports :

Donegal, Ireland

Donegal Airport

latitude: 55-02-39N, longitude: 8-20-28W, elevation: 9 m

Current weather observation

The report was made 15 minutes ago, at 07:00 UTC
Wind 14 kt from the Southeast
Temperature 19°C
Humidity 64%
Pressure 1013 hPa
Visibility 10 km or more
no clouds below 1500 m and no cumulonimbus

METAR: EIDL 260700Z 14014KT CAVOK 19/12 Q1013

Time: 08:15 (07:15 UTC)

Forecast

The report was made 2 hours and 15 minutes ago, at 05:00 UTC
Forecast valid from 26 at 06 UTC to 26 at 15 UTC
Wind 12 kt from the East/Southeast
Visibility 10 km or more
no clouds below 1500 m and no cumulonimbus
Temporary
from 26 at 13 UTC to 26 at 15 UTC
Wind 15 kt from the East/Southeast with gusts up to 25 kt

TAF: EIDL 260500Z 2606/2615 12012KT CAVOK TEMPO 2613/2615 12015G25KT

Weather observations and forecasts of more than 4000 airports (METAR and TAF reports).

The available stations are represented by yellow and red dots on the map.

Hover mouse over dot to see the name of the station.

Then click to see weather observations and forecasts.

To change the map : click on the green buttons with a black cross to zoom in, on the green button with a dash to zoom out, or on the green arrows for adjacent maps.


METAR-TAF: